sensor_id;sensor_type;location;lat;lon;timestamp;P1;durP1;ratioP1;P2;durP2;ratioP2
6898;SDS011;3488;42.616;23.350;2023-04-08T00:00:58;7.95;;;6.40;;
6898;SDS011;3488;42.616;23.350;2023-04-08T00:03:25;6.82;;;6.00;;
6898;SDS011;3488;42.616;23.350;2023-04-08T00:05:52;7.20;;;6.35;;
6898;SDS011;3488;42.616;23.350;2023-04-08T00:08:19;7.43;;;6.45;;
6898;SDS011;3488;42.616;23.350;2023-04-08T00:10:48;6.40;;;5.80;;
6898;SDS011;3488;42.616;23.350;2023-04-08T00:13:15;6.25;;;5.65;;
6898;SDS011;3488;42.616;23.350;2023-04-08T00:15:42;8.18;;;6.60;;
6898;SDS011;3488;42.616;23.350;2023-04-08T00:18:09;7.30;;;6.60;;
6898;SDS011;3488;42.616;23.350;2023-04-08T00:20:37;7.78;;;7.03;;
6898;SDS011;3488;42.616;23.350;2023-04-08T00:23:04;11.05;;;9.52;;
6898;SDS011;3488;42.616;23.350;2023-04-08T00:25:31;13.77;;;10.88;;
6898;SDS011;3488;42.616;23.350;2023-04-08T00:28:00;17.30;;;10.93;;
6898;SDS011;3488;42.616;23.350;2023-04-08T00:30:27;14.75;;;9.02;;
6898;SDS011;3488;42.616;23.350;2023-04-08T00:32:55;10.35;;;8.48;;
6898;SDS011;3488;42.616;23.350;2023-04-08T00:35:22;9.65;;;7.15;;
6898;SDS011;3488;42.616;23.350;2023-04-08T00:37:49;9.90;;;8.30;;
6898;SDS011;3488;42.616;23.350;2023-04-08T00:40:16;8.20;;;7.47;;
6898;SDS011;3488;42.616;23.350;2023-04-08T00:42:44;9.90;;;8.90;;
6898;SDS011;3488;42.616;23.350;2023-04-08T00:45:13;10.57;;;8.15;;
6898;SDS011;3488;42.616;23.350;2023-04-08T00:47:40;12.00;;;8.43;;
6898;SDS011;3488;42.616;23.350;2023-04-08T00:50:08;11.48;;;8.60;;
6898;SDS011;3488;42.616;23.350;2023-04-08T00:52:35;10.55;;;8.23;;
6898;SDS011;3488;42.616;23.350;2023-04-08T00:55:03;9.35;;;8.38;;
6898;SDS011;3488;42.616;23.350;2023-04-08T00:57:31;13.43;;;9.27;;
6898;SDS011;3488;42.616;23.350;2023-04-08T00:59:59;14.32;;;10.30;;
6898;SDS011;3488;42.616;23.350;2023-04-08T01:02:33;20.02;;;13.27;;
6898;SDS011;3488;42.616;23.350;2023-04-08T01:05:06;18.67;;;13.02;;
6898;SDS011;3488;42.616;23.350;2023-04-08T01:07:40;18.48;;;11.60;;
6898;SDS011;3488;42.616;23.350;2023-04-08T01:10:14;18.25;;;12.68;;
6898;SDS011;3488;42.616;23.350;2023-04-08T01:12:47;17.58;;;12.55;;
6898;SDS011;3488;42.616;23.350;2023-04-08T01:15:17;14.82;;;11.57;;
6898;SDS011;3488;42.616;23.350;2023-04-08T01:17:45;11.23;;;9.48;;
6898;SDS011;3488;42.616;23.350;2023-04-08T01:20:13;11.65;;;8.90;;
6898;SDS011;3488;42.616;23.350;2023-04-08T01:22:48;8.35;;;7.55;;
6898;SDS011;3488;42.616;23.350;2023-04-08T01:25:25;8.88;;;7.43;;
6898;SDS011;3488;42.616;23.350;2023-04-08T01:27:58;8.73;;;7.82;;
6898;SDS011;3488;42.616;23.350;2023-04-08T01:30:27;7.88;;;7.07;;
6898;SDS011;3488;42.616;23.350;2023-04-08T01:32:56;7.97;;;6.28;;
6898;SDS011;3488;42.616;23.350;2023-04-08T01:35:24;9.90;;;7.18;;
6898;SDS011;3488;42.616;23.350;2023-04-08T01:37:52;7.88;;;7.07;;
6898;SDS011;3488;42.616;23.350;2023-04-08T01:40:21;10.05;;;7.85;;
6898;SDS011;3488;42.616;23.350;2023-04-08T01:42:49;13.10;;;8.38;;
6898;SDS011;3488;42.616;23.350;2023-04-08T01:45:21;11.45;;;7.78;;
6898;SDS011;3488;42.616;23.350;2023-04-08T01:47:48;9.82;;;8.82;;
6898;SDS011;3488;42.616;23.350;2023-04-08T01:50:17;12.48;;;9.65;;
6898;SDS011;3488;42.616;23.350;2023-04-08T01:52:46;14.70;;;9.77;;
6898;SDS011;3488;42.616;23.350;2023-04-08T01:55:17;13.50;;;9.93;;
6898;SDS011;3488;42.616;23.350;2023-04-08T01:57:46;12.65;;;9.18;;
6898;SDS011;3488;42.616;23.350;2023-04-08T02:00:17;10.93;;;9.43;;
6898;SDS011;3488;42.616;23.350;2023-04-08T02:02:49;14.70;;;9.60;;
6898;SDS011;3488;42.616;23.350;2023-04-08T02:05:18;14.52;;;10.30;;
6898;SDS011;3488;42.616;23.350;2023-04-08T02:07:45;11.32;;;9.98;;
6898;SDS011;3488;42.616;23.350;2023-04-08T02:10:13;15.90;;;9.20;;
6898;SDS011;3488;42.616;23.350;2023-04-08T02:12:40;12.25;;;10.18;;
6898;SDS011;3488;42.616;23.350;2023-04-08T02:15:09;11.43;;;9.32;;
6898;SDS011;3488;42.616;23.350;2023-04-08T02:17:38;11.00;;;9.88;;
6898;SDS011;3488;42.616;23.350;2023-04-08T02:20:13;11.98;;;9.32;;
6898;SDS011;3488;42.616;23.350;2023-04-08T02:22:43;11.68;;;9.40;;
6898;SDS011;3488;42.616;23.350;2023-04-08T02:25:15;11.02;;;8.48;;
6898;SDS011;3488;42.616;23.350;2023-04-08T02:27:47;14.95;;;8.77;;
6898;SDS011;3488;42.616;23.350;2023-04-08T02:30:15;11.30;;;8.05;;
6898;SDS011;3488;42.616;23.350;2023-04-08T02:32:44;10.23;;;8.18;;
6898;SDS011;3488;42.616;23.350;2023-04-08T02:35:14;9.07;;;7.75;;
6898;SDS011;3488;42.616;23.350;2023-04-08T02:37:44;9.70;;;8.65;;
6898;SDS011;3488;42.616;23.350;2023-04-08T02:40:25;11.35;;;8.82;;
6898;SDS011;3488;42.616;23.350;2023-04-08T02:42:53;11.70;;;8.90;;
6898;SDS011;3488;42.616;23.350;2023-04-08T02:45:21;16.00;;;11.60;;
6898;SDS011;3488;42.616;23.350;2023-04-08T02:47:48;13.32;;;10.70;;
6898;SDS011;3488;42.616;23.350;2023-04-08T02:50:17;16.27;;;11.60;;
6898;SDS011;3488;42.616;23.350;2023-04-08T02:52:44;17.40;;;11.20;;
6898;SDS011;3488;42.616;23.350;2023-04-08T02:55:12;14.07;;;11.65;;
6898;SDS011;3488;42.616;23.350;2023-04-08T02:57:40;13.88;;;11.63;;
6898;SDS011;3488;42.616;23.350;2023-04-08T03:00:08;15.27;;;12.23;;
6898;SDS011;3488;42.616;23.350;2023-04-08T03:02:36;19.25;;;13.48;;
6898;SDS011;3488;42.616;23.350;2023-04-08T03:05:04;17.95;;;13.25;;
6898;SDS011;3488;42.616;23.350;2023-04-08T03:07:33;20.48;;;14.68;;
6898;SDS011;3488;42.616;23.350;2023-04-08T03:10:00;17.35;;;13.88;;
6898;SDS011;3488;42.616;23.350;2023-04-08T03:12:27;17.00;;;12.75;;
6898;SDS011;3488;42.616;23.350;2023-04-08T03:14:55;18.25;;;13.10;;
6898;SDS011;3488;42.616;23.350;2023-04-08T03:17:22;16.42;;;11.80;;
6898;SDS011;3488;42.616;23.350;2023-04-08T03:19:50;16.40;;;13.18;;
6898;SDS011;3488;42.616;23.350;2023-04-08T03:22:17;22.88;;;12.50;;
6898;SDS011;3488;42.616;23.350;2023-04-08T03:24:46;21.33;;;13.10;;
6898;SDS011;3488;42.616;23.350;2023-04-08T03:27:13;14.68;;;11.65;;
6898;SDS011;3488;42.616;23.350;2023-04-08T03:29:40;15.55;;;12.55;;
6898;SDS011;3488;42.616;23.350;2023-04-08T03:32:10;16.42;;;11.63;;
6898;SDS011;3488;42.616;23.350;2023-04-08T03:34:37;18.13;;;12.68;;
6898;SDS011;3488;42.616;23.350;2023-04-08T03:37:07;17.00;;;12.60;;
6898;SDS011;3488;42.616;23.350;2023-04-08T03:39:34;15.25;;;12.38;;
6898;SDS011;3488;42.616;23.350;2023-04-08T03:42:03;20.70;;;11.55;;
6898;SDS011;3488;42.616;23.350;2023-04-08T03:44:30;15.02;;;11.80;;
6898;SDS011;3488;42.616;23.350;2023-04-08T03:46:57;16.23;;;11.88;;
6898;SDS011;3488;42.616;23.350;2023-04-08T03:49:24;18.48;;;12.82;;
6898;SDS011;3488;42.616;23.350;2023-04-08T03:51:51;15.57;;;11.85;;
6898;SDS011;3488;42.616;23.350;2023-04-08T03:54:20;14.45;;;12.00;;
6898;SDS011;3488;42.616;23.350;2023-04-08T03:56:47;18.27;;;13.48;;
6898;SDS011;3488;42.616;23.350;2023-04-08T03:59:16;16.05;;;13.38;;
6898;SDS011;3488;42.616;23.350;2023-04-08T04:01:43;20.27;;;13.55;;
6898;SDS011;3488;42.616;23.350;2023-04-08T04:04:11;20.00;;;13.80;;
6898;SDS011;3488;42.616;23.350;2023-04-08T04:06:39;17.00;;;12.60;;
6898;SDS011;3488;42.616;23.350;2023-04-08T04:09:06;18.33;;;12.57;;
6898;SDS011;3488;42.616;23.350;2023-04-08T04:11:33;14.30;;;11.43;;
6898;SDS011;3488;42.616;23.350;2023-04-08T04:14:00;17.13;;;12.15;;
6898;SDS011;3488;42.616;23.350;2023-04-08T04:16:29;13.93;;;11.57;;
6898;SDS011;3488;42.616;23.350;2023-04-08T04:18:57;14.40;;;12.02;;
6898;SDS011;3488;42.616;23.350;2023-04-08T04:21:24;17.83;;;11.85;;
6898;SDS011;3488;42.616;23.350;2023-04-08T04:23:51;12.32;;;10.65;;
6898;SDS011;3488;42.616;23.350;2023-04-08T04:26:19;12.85;;;10.55;;
6898;SDS011;3488;42.616;23.350;2023-04-08T04:28:46;12.05;;;9.70;;
6898;SDS011;3488;42.616;23.350;2023-04-08T04:31:17;13.45;;;9.90;;
6898;SDS011;3488;42.616;23.350;2023-04-08T04:33:47;13.57;;;9.98;;
6898;SDS011;3488;42.616;23.350;2023-04-08T04:36:14;13.40;;;10.05;;
6898;SDS011;3488;42.616;23.350;2023-04-08T04:38:41;11.27;;;9.43;;
6898;SDS011;3488;42.616;23.350;2023-04-08T04:41:08;13.65;;;10.15;;
6898;SDS011;3488;42.616;23.350;2023-04-08T04:43:36;13.20;;;11.45;;
6898;SDS011;3488;42.616;23.350;2023-04-08T04:46:03;14.02;;;10.52;;
6898;SDS011;3488;42.616;23.350;2023-04-08T04:48:33;11.32;;;9.88;;
6898;SDS011;3488;42.616;23.350;2023-04-08T04:51:01;11.80;;;10.50;;
6898;SDS011;3488;42.616;23.350;2023-04-08T04:53:29;13.70;;;10.65;;
6898;SDS011;3488;42.616;23.350;2023-04-08T04:55:56;14.07;;;10.65;;
6898;SDS011;3488;42.616;23.350;2023-04-08T04:58:22;16.13;;;11.52;;
6898;SDS011;3488;42.616;23.350;2023-04-08T05:00:50;12.95;;;11.02;;
6898;SDS011;3488;42.616;23.350;2023-04-08T05:03:17;17.38;;;13.43;;
6898;SDS011;3488;42.616;23.350;2023-04-08T05:05:49;14.73;;;11.93;;
6898;SDS011;3488;42.616;23.350;2023-04-08T05:08:18;15.07;;;10.32;;
6898;SDS011;3488;42.616;23.350;2023-04-08T05:10:45;14.45;;;10.27;;
6898;SDS011;3488;42.616;23.350;2023-04-08T05:13:14;14.10;;;10.10;;
6898;SDS011;3488;42.616;23.350;2023-04-08T05:15:41;13.82;;;10.35;;
6898;SDS011;3488;42.616;23.350;2023-04-08T05:18:09;11.23;;;9.65;;
6898;SDS011;3488;42.616;23.350;2023-04-08T05:20:37;14.05;;;11.05;;
6898;SDS011;3488;42.616;23.350;2023-04-08T05:23:04;13.23;;;9.95;;
6898;SDS011;3488;42.616;23.350;2023-04-08T05:25:33;10.52;;;9.43;;
6898;SDS011;3488;42.616;23.350;2023-04-08T05:28:01;11.30;;;9.77;;
6898;SDS011;3488;42.616;23.350;2023-04-08T05:30:28;12.73;;;10.48;;
6898;SDS011;3488;42.616;23.350;2023-04-08T05:32:55;13.82;;;10.18;;
6898;SDS011;3488;42.616;23.350;2023-04-08T05:35:22;13.43;;;10.35;;
6898;SDS011;3488;42.616;23.350;2023-04-08T05:37:49;12.23;;;10.88;;
6898;SDS011;3488;42.616;23.350;2023-04-08T05:40:16;12.50;;;10.55;;
6898;SDS011;3488;42.616;23.350;2023-04-08T05:42:45;17.92;;;11.43;;
6898;SDS011;3488;42.616;23.350;2023-04-08T05:45:12;13.77;;;10.80;;
6898;SDS011;3488;42.616;23.350;2023-04-08T05:47:39;14.73;;;11.45;;
6898;SDS011;3488;42.616;23.350;2023-04-08T05:50:06;16.00;;;11.10;;
6898;SDS011;3488;42.616;23.350;2023-04-08T05:52:35;15.05;;;11.10;;
6898;SDS011;3488;42.616;23.350;2023-04-08T05:55:02;18.65;;;11.68;;
6898;SDS011;3488;42.616;23.350;2023-04-08T05:57:30;13.95;;;10.20;;
6898;SDS011;3488;42.616;23.350;2023-04-08T05:59:59;17.30;;;12.48;;
6898;SDS011;3488;42.616;23.350;2023-04-08T06:02:27;16.25;;;10.70;;
6898;SDS011;3488;42.616;23.350;2023-04-08T06:04:55;13.68;;;11.05;;
6898;SDS011;3488;42.616;23.350;2023-04-08T06:07:22;12.65;;;11.32;;
6898;SDS011;3488;42.616;23.350;2023-04-08T06:09:48;17.75;;;12.55;;
6898;SDS011;3488;42.616;23.350;2023-04-08T06:12:15;18.35;;;12.32;;
6898;SDS011;3488;42.616;23.350;2023-04-08T06:14:42;15.80;;;11.68;;
6898;SDS011;3488;42.616;23.350;2023-04-08T06:17:11;13.57;;;11.90;;
6898;SDS011;3488;42.616;23.350;2023-04-08T06:19:38;16.90;;;12.32;;
6898;SDS011;3488;42.616;23.350;2023-04-08T06:22:05;22.50;;;15.60;;
6898;SDS011;3488;42.616;23.350;2023-04-08T06:24:32;16.73;;;11.20;;
6898;SDS011;3488;42.616;23.350;2023-04-08T06:26:59;14.20;;;11.52;;
6898;SDS011;3488;42.616;23.350;2023-04-08T06:29:27;13.63;;;11.75;;
6898;SDS011;3488;42.616;23.350;2023-04-08T06:31:55;12.68;;;11.15;;
6898;SDS011;3488;42.616;23.350;2023-04-08T06:34:24;13.55;;;11.55;;
6898;SDS011;3488;42.616;23.350;2023-04-08T06:36:51;11.85;;;9.82;;
6898;SDS011;3488;42.616;23.350;2023-04-08T06:39:18;13.90;;;11.13;;
6898;SDS011;3488;42.616;23.350;2023-04-08T06:41:45;12.27;;;10.45;;
6898;SDS011;3488;42.616;23.350;2023-04-08T06:44:12;15.15;;;10.98;;
6898;SDS011;3488;42.616;23.350;2023-04-08T06:46:40;15.45;;;11.02;;
6898;SDS011;3488;42.616;23.350;2023-04-08T06:49:07;12.23;;;10.48;;
6898;SDS011;3488;42.616;23.350;2023-04-08T06:51:35;12.05;;;10.15;;
6898;SDS011;3488;42.616;23.350;2023-04-08T06:54:03;11.82;;;10.63;;
6898;SDS011;3488;42.616;23.350;2023-04-08T06:56:30;13.55;;;11.70;;
6898;SDS011;3488;42.616;23.350;2023-04-08T06:58:57;11.93;;;10.68;;
6898;SDS011;3488;42.616;23.350;2023-04-08T07:01:25;11.95;;;10.65;;
6898;SDS011;3488;42.616;23.350;2023-04-08T07:03:52;13.52;;;11.45;;
6898;SDS011;3488;42.616;23.350;2023-04-08T07:06:20;13.95;;;11.38;;
6898;SDS011;3488;42.616;23.350;2023-04-08T07:08:49;25.55;;;13.95;;
6898;SDS011;3488;42.616;23.350;2023-04-08T07:11:16;17.83;;;13.10;;
6898;SDS011;3488;42.616;23.350;2023-04-08T07:13:44;14.93;;;13.25;;
6898;SDS011;3488;42.616;23.350;2023-04-08T07:16:12;17.48;;;12.60;;
6898;SDS011;3488;42.616;23.350;2023-04-08T07:18:39;15.00;;;12.80;;
6898;SDS011;3488;42.616;23.350;2023-04-08T07:21:08;13.48;;;11.43;;
6898;SDS011;3488;42.616;23.350;2023-04-08T07:23:36;16.85;;;11.48;;
6898;SDS011;3488;42.616;23.350;2023-04-08T07:26:06;14.73;;;11.50;;
6898;SDS011;3488;42.616;23.350;2023-04-08T07:28:33;12.70;;;11.40;;
6898;SDS011;3488;42.616;23.350;2023-04-08T07:31:10;12.65;;;11.10;;
6898;SDS011;3488;42.616;23.350;2023-04-08T07:33:41;14.02;;;10.90;;
6898;SDS011;3488;42.616;23.350;2023-04-08T07:36:09;12.90;;;10.10;;
6898;SDS011;3488;42.616;23.350;2023-04-08T07:38:36;11.73;;;10.55;;
6898;SDS011;3488;42.616;23.350;2023-04-08T07:41:04;14.00;;;11.38;;
6898;SDS011;3488;42.616;23.350;2023-04-08T07:43:36;12.63;;;10.45;;
6898;SDS011;3488;42.616;23.350;2023-04-08T07:46:04;13.60;;;10.98;;
6898;SDS011;3488;42.616;23.350;2023-04-08T07:48:32;14.98;;;10.15;;
6898;SDS011;3488;42.616;23.350;2023-04-08T07:51:02;11.00;;;9.43;;
6898;SDS011;3488;42.616;23.350;2023-04-08T07:53:30;14.73;;;10.20;;
6898;SDS011;3488;42.616;23.350;2023-04-08T07:55:57;9.40;;;8.50;;
6898;SDS011;3488;42.616;23.350;2023-04-08T07:58:26;11.07;;;9.57;;
6898;SDS011;3488;42.616;23.350;2023-04-08T08:00:53;11.00;;;9.90;;
6898;SDS011;3488;42.616;23.350;2023-04-08T08:03:21;12.10;;;10.30;;
6898;SDS011;3488;42.616;23.350;2023-04-08T08:05:50;14.13;;;9.75;;
6898;SDS011;3488;42.616;23.350;2023-04-08T08:08:17;11.40;;;9.43;;
6898;SDS011;3488;42.616;23.350;2023-04-08T08:10:44;10.40;;;9.32;;
6898;SDS011;3488;42.616;23.350;2023-04-08T08:13:11;10.85;;;9.20;;
6898;SDS011;3488;42.616;23.350;2023-04-08T08:15:42;9.75;;;8.75;;
6898;SDS011;3488;42.616;23.350;2023-04-08T08:18:09;11.93;;;9.57;;
6898;SDS011;3488;42.616;23.350;2023-04-08T08:20:37;10.13;;;9.10;;
6898;SDS011;3488;42.616;23.350;2023-04-08T08:23:04;10.07;;;8.95;;
6898;SDS011;3488;42.616;23.350;2023-04-08T08:25:31;10.13;;;8.98;;
6898;SDS011;3488;42.616;23.350;2023-04-08T08:27:58;11.93;;;9.80;;
6898;SDS011;3488;42.616;23.350;2023-04-08T08:30:25;10.65;;;8.95;;
6898;SDS011;3488;42.616;23.350;2023-04-08T08:32:54;11.75;;;9.55;;
6898;SDS011;3488;42.616;23.350;2023-04-08T08:35:23;9.10;;;8.20;;
6898;SDS011;3488;42.616;23.350;2023-04-08T08:37:50;10.75;;;8.80;;
6898;SDS011;3488;42.616;23.350;2023-04-08T08:40:17;9.45;;;8.45;;
6898;SDS011;3488;42.616;23.350;2023-04-08T08:42:48;10.20;;;9.05;;
6898;SDS011;3488;42.616;23.350;2023-04-08T08:45:16;12.55;;;10.05;;
6898;SDS011;3488;42.616;23.350;2023-04-08T08:47:44;11.93;;;9.88;;
6898;SDS011;3488;42.616;23.350;2023-04-08T08:50:12;12.95;;;10.68;;
6898;SDS011;3488;42.616;23.350;2023-04-08T08:52:45;11.88;;;10.20;;
6898;SDS011;3488;42.616;23.350;2023-04-08T08:55:14;12.25;;;10.98;;
6898;SDS011;3488;42.616;23.350;2023-04-08T08:57:43;14.45;;;10.52;;
6898;SDS011;3488;42.616;23.350;2023-04-08T09:00:11;11.25;;;9.50;;
6898;SDS011;3488;42.616;23.350;2023-04-08T09:02:40;14.50;;;10.88;;
6898;SDS011;3488;42.616;23.350;2023-04-08T09:05:07;12.27;;;10.02;;
6898;SDS011;3488;42.616;23.350;2023-04-08T09:07:36;13.73;;;10.98;;
6898;SDS011;3488;42.616;23.350;2023-04-08T09:10:05;19.00;;;11.57;;
6898;SDS011;3488;42.616;23.350;2023-04-08T09:12:33;10.23;;;8.60;;
6898;SDS011;3488;42.616;23.350;2023-04-08T09:15:03;10.50;;;9.43;;
6898;SDS011;3488;42.616;23.350;2023-04-08T09:17:31;10.20;;;9.10;;
6898;SDS011;3488;42.616;23.350;2023-04-08T09:20:03;12.05;;;8.60;;
6898;SDS011;3488;42.616;23.350;2023-04-08T09:22:58;10.88;;;9.40;;
6898;SDS011;3488;42.616;23.350;2023-04-08T09:25:27;10.40;;;9.40;;
6898;SDS011;3488;42.616;23.350;2023-04-08T09:27:54;12.82;;;11.18;;
6898;SDS011;3488;42.616;23.350;2023-04-08T09:30:22;12.13;;;9.98;;
6898;SDS011;3488;42.616;23.350;2023-04-08T09:32:50;13.32;;;10.20;;
6898;SDS011;3488;42.616;23.350;2023-04-08T09:35:18;16.85;;;10.38;;
6898;SDS011;3488;42.616;23.350;2023-04-08T09:37:46;13.52;;;11.70;;
6898;SDS011;3488;42.616;23.350;2023-04-08T09:40:15;19.15;;;12.80;;
6898;SDS011;3488;42.616;23.350;2023-04-08T09:42:44;12.85;;;10.98;;
6898;SDS011;3488;42.616;23.350;2023-04-08T09:45:12;15.40;;;11.90;;
6898;SDS011;3488;42.616;23.350;2023-04-08T09:47:43;16.88;;;13.32;;
6898;SDS011;3488;42.616;23.350;2023-04-08T09:50:18;22.58;;;17.67;;
6898;SDS011;3488;42.616;23.350;2023-04-08T09:52:51;15.07;;;11.25;;
6898;SDS011;3488;42.616;23.350;2023-04-08T09:55:23;14.68;;;11.38;;
6898;SDS011;3488;42.616;23.350;2023-04-08T09:57:54;20.02;;;12.13;;
6898;SDS011;3488;42.616;23.350;2023-04-08T10:00:27;18.42;;;12.80;;
6898;SDS011;3488;42.616;23.350;2023-04-08T10:02:59;14.30;;;11.00;;
6898;SDS011;3488;42.616;23.350;2023-04-08T10:05:34;17.55;;;12.10;;
6898;SDS011;3488;42.616;23.350;2023-04-08T10:08:03;15.95;;;12.35;;
6898;SDS011;3488;42.616;23.350;2023-04-08T10:10:32;16.45;;;12.77;;
6898;SDS011;3488;42.616;23.350;2023-04-08T10:13:01;17.33;;;12.57;;
6898;SDS011;3488;42.616;23.350;2023-04-08T10:15:29;15.82;;;11.68;;
6898;SDS011;3488;42.616;23.350;2023-04-08T10:20:58;18.63;;;13.98;;
6898;SDS011;3488;42.616;23.350;2023-04-08T10:26:30;17.80;;;12.65;;
6898;SDS011;3488;42.616;23.350;2023-04-08T10:31:57;17.45;;;13.20;;
6898;SDS011;3488;42.616;23.350;2023-04-08T10:34:25;22.38;;;14.15;;
6898;SDS011;3488;42.616;23.350;2023-04-08T10:36:53;17.17;;;13.57;;
6898;SDS011;3488;42.616;23.350;2023-04-08T10:39:23;18.55;;;13.30;;
6898;SDS011;3488;42.616;23.350;2023-04-08T10:41:53;17.02;;;13.05;;
6898;SDS011;3488;42.616;23.350;2023-04-08T10:44:22;20.55;;;13.32;;
6898;SDS011;3488;42.616;23.350;2023-04-08T10:46:50;15.27;;;12.05;;
6898;SDS011;3488;42.616;23.350;2023-04-08T10:49:18;13.05;;;11.70;;
6898;SDS011;3488;42.616;23.350;2023-04-08T10:51:46;19.45;;;13.20;;
6898;SDS011;3488;42.616;23.350;2023-04-08T10:54:13;17.60;;;11.90;;
6898;SDS011;3488;42.616;23.350;2023-04-08T10:56:45;15.68;;;12.05;;
6898;SDS011;3488;42.616;23.350;2023-04-08T10:59:15;16.23;;;11.77;;
6898;SDS011;3488;42.616;23.350;2023-04-08T11:01:44;16.75;;;12.52;;
6898;SDS011;3488;42.616;23.350;2023-04-08T11:04:12;18.35;;;13.18;;
6898;SDS011;3488;42.616;23.350;2023-04-08T11:06:41;16.95;;;12.43;;
6898;SDS011;3488;42.616;23.350;2023-04-08T11:09:09;13.95;;;10.88;;
6898;SDS011;3488;42.616;23.350;2023-04-08T11:11:36;13.35;;;10.98;;
6898;SDS011;3488;42.616;23.350;2023-04-08T11:14:03;14.52;;;11.07;;
6898;SDS011;3488;42.616;23.350;2023-04-08T11:16:33;13.48;;;11.15;;
6898;SDS011;3488;42.616;23.350;2023-04-08T11:19:01;15.50;;;12.20;;
6898;SDS011;3488;42.616;23.350;2023-04-08T11:21:29;15.77;;;11.88;;
6898;SDS011;3488;42.616;23.350;2023-04-08T11:23:56;14.93;;;11.18;;
6898;SDS011;3488;42.616;23.350;2023-04-08T11:26:24;15.48;;;11.40;;
6898;SDS011;3488;42.616;23.350;2023-04-08T11:28:53;12.93;;;10.10;;
6898;SDS011;3488;42.616;23.350;2023-04-08T11:31:21;11.48;;;9.93;;
6898;SDS011;3488;42.616;23.350;2023-04-08T11:33:51;11.98;;;9.65;;
6898;SDS011;3488;42.616;23.350;2023-04-08T11:36:20;10.75;;;9.63;;
6898;SDS011;3488;42.616;23.350;2023-04-08T11:38:47;14.63;;;11.40;;
6898;SDS011;3488;42.616;23.350;2023-04-08T11:41:15;13.18;;;10.35;;
6898;SDS011;3488;42.616;23.350;2023-04-08T11:43:52;18.60;;;12.77;;
6898;SDS011;3488;42.616;23.350;2023-04-08T11:46:20;12.57;;;9.55;;
6898;SDS011;3488;42.616;23.350;2023-04-08T11:48:59;9.90;;;8.60;;
6898;SDS011;3488;42.616;23.350;2023-04-08T11:51:26;10.77;;;9.35;;
6898;SDS011;3488;42.616;23.350;2023-04-08T11:53:54;10.13;;;9.02;;
6898;SDS011;3488;42.616;23.350;2023-04-08T11:56:21;10.48;;;9.38;;
6898;SDS011;3488;42.616;23.350;2023-04-08T11:58:49;11.60;;;9.88;;
6898;SDS011;3488;42.616;23.350;2023-04-08T12:01:16;14.43;;;9.73;;
6898;SDS011;3488;42.616;23.350;2023-04-08T12:06:30;12.00;;;9.18;;
6898;SDS011;3488;42.616;23.350;2023-04-08T12:08:58;11.18;;;9.65;;
6898;SDS011;3488;42.616;23.350;2023-04-08T12:11:25;10.10;;;8.77;;
6898;SDS011;3488;42.616;23.350;2023-04-08T12:13:52;16.42;;;9.75;;
6898;SDS011;3488;42.616;23.350;2023-04-08T12:16:19;11.73;;;9.30;;
6898;SDS011;3488;42.616;23.350;2023-04-08T12:18:46;9.20;;;8.27;;
6898;SDS011;3488;42.616;23.350;2023-04-08T12:21:15;10.60;;;8.73;;
6898;SDS011;3488;42.616;23.350;2023-04-08T12:23:42;10.20;;;8.60;;
6898;SDS011;3488;42.616;23.350;2023-04-08T12:26:09;11.30;;;8.45;;
6898;SDS011;3488;42.616;23.350;2023-04-08T12:28:37;9.13;;;7.28;;
6898;SDS011;3488;42.616;23.350;2023-04-08T12:31:05;7.57;;;6.85;;
6898;SDS011;3488;42.616;23.350;2023-04-08T12:33:32;7.93;;;7.10;;
6898;SDS011;3488;42.616;23.350;2023-04-08T12:35:59;8.20;;;7.40;;
6898;SDS011;3488;42.616;23.350;2023-04-08T12:38:27;7.40;;;6.70;;
6898;SDS011;3488;42.616;23.350;2023-04-08T12:40:54;7.88;;;7.18;;
6898;SDS011;3488;42.616;23.350;2023-04-08T12:43:22;6.82;;;6.22;;
6898;SDS011;3488;42.616;23.350;2023-04-08T12:45:49;6.82;;;6.13;;
6898;SDS011;3488;42.616;23.350;2023-04-08T12:48:16;6.50;;;5.93;;
6898;SDS011;3488;42.616;23.350;2023-04-08T12:50:43;6.80;;;6.30;;
6898;SDS011;3488;42.616;23.350;2023-04-08T12:53:10;9.52;;;7.53;;
6898;SDS011;3488;42.616;23.350;2023-04-08T12:55:38;6.32;;;5.82;;
6898;SDS011;3488;42.616;23.350;2023-04-08T12:58:05;7.55;;;6.95;;
6898;SDS011;3488;42.616;23.350;2023-04-08T13:00:32;7.93;;;7.13;;
6898;SDS011;3488;42.616;23.350;2023-04-08T13:03:02;8.25;;;7.45;;
6898;SDS011;3488;42.616;23.350;2023-04-08T13:05:30;8.55;;;7.70;;
6898;SDS011;3488;42.616;23.350;2023-04-08T13:07:57;8.52;;;7.63;;
6898;SDS011;3488;42.616;23.350;2023-04-08T13:10:24;8.25;;;7.25;;
6898;SDS011;3488;42.616;23.350;2023-04-08T13:12:52;13.77;;;8.82;;
6898;SDS011;3488;42.616;23.350;2023-04-08T13:15:20;9.65;;;8.63;;
6898;SDS011;3488;42.616;23.350;2023-04-08T13:17:47;7.70;;;6.88;;
6898;SDS011;3488;42.616;23.350;2023-04-08T13:20:15;7.88;;;7.15;;
6898;SDS011;3488;42.616;23.350;2023-04-08T13:22:42;8.73;;;7.85;;
6898;SDS011;3488;42.616;23.350;2023-04-08T13:25:09;9.40;;;7.75;;
6898;SDS011;3488;42.616;23.350;2023-04-08T13:27:36;7.97;;;7.07;;
6898;SDS011;3488;42.616;23.350;2023-04-08T13:30:06;7.57;;;6.63;;
6898;SDS011;3488;42.616;23.350;2023-04-08T13:32:34;9.73;;;7.75;;
6898;SDS011;3488;42.616;23.350;2023-04-08T13:35:01;8.23;;;7.47;;
6898;SDS011;3488;42.616;23.350;2023-04-08T13:37:28;9.18;;;8.35;;
6898;SDS011;3488;42.616;23.350;2023-04-08T13:40:02;10.00;;;8.98;;
6898;SDS011;3488;42.616;23.350;2023-04-08T13:42:30;10.32;;;8.35;;
6898;SDS011;3488;42.616;23.350;2023-04-08T13:44:59;11.90;;;8.63;;
6898;SDS011;3488;42.616;23.350;2023-04-08T13:47:28;10.50;;;8.93;;
6898;SDS011;3488;42.616;23.350;2023-04-08T13:49:55;8.88;;;7.97;;
6898;SDS011;3488;42.616;23.350;2023-04-08T13:52:23;6.25;;;5.65;;
6898;SDS011;3488;42.616;23.350;2023-04-08T13:54:50;7.95;;;7.15;;
6898;SDS011;3488;42.616;23.350;2023-04-08T13:57:17;8.73;;;7.93;;
6898;SDS011;3488;42.616;23.350;2023-04-08T13:59:45;10.75;;;8.25;;
6898;SDS011;3488;42.616;23.350;2023-04-08T14:02:12;11.20;;;9.65;;
6898;SDS011;3488;42.616;23.350;2023-04-08T14:04:41;11.90;;;10.48;;
6898;SDS011;3488;42.616;23.350;2023-04-08T14:07:10;13.65;;;10.10;;
6898;SDS011;3488;42.616;23.350;2023-04-08T14:09:37;10.63;;;9.52;;
6898;SDS011;3488;42.616;23.350;2023-04-08T14:12:04;11.88;;;10.68;;
6898;SDS011;3488;42.616;23.350;2023-04-08T14:14:31;12.80;;;10.15;;
6898;SDS011;3488;42.616;23.350;2023-04-08T14:16:58;12.73;;;10.80;;
6898;SDS011;3488;42.616;23.350;2023-04-08T14:19:25;14.55;;;9.82;;
6898;SDS011;3488;42.616;23.350;2023-04-08T14:21:54;12.95;;;9.10;;
6898;SDS011;3488;42.616;23.350;2023-04-08T14:24:21;10.35;;;9.23;;
6898;SDS011;3488;42.616;23.350;2023-04-08T14:26:48;10.60;;;9.50;;
6898;SDS011;3488;42.616;23.350;2023-04-08T14:29:15;9.85;;;8.95;;
6898;SDS011;3488;42.616;23.350;2023-04-08T14:31:42;9.57;;;8.65;;
6898;SDS011;3488;42.616;23.350;2023-04-08T14:34:09;9.77;;;8.82;;
6898;SDS011;3488;42.616;23.350;2023-04-08T14:36:36;10.30;;;8.85;;
6898;SDS011;3488;42.616;23.350;2023-04-08T14:39:04;8.52;;;7.70;;
6898;SDS011;3488;42.616;23.350;2023-04-08T14:41:31;9.05;;;8.15;;
6898;SDS011;3488;42.616;23.350;2023-04-08T14:43:58;8.50;;;7.45;;
6898;SDS011;3488;42.616;23.350;2023-04-08T14:46:25;10.80;;;7.78;;
6898;SDS011;3488;42.616;23.350;2023-04-08T14:48:52;8.82;;;6.88;;
6898;SDS011;3488;42.616;23.350;2023-04-08T14:51:19;7.68;;;6.97;;
6898;SDS011;3488;42.616;23.350;2023-04-08T14:53:46;7.60;;;6.60;;
6898;SDS011;3488;42.616;23.350;2023-04-08T14:56:14;8.95;;;7.35;;
6898;SDS011;3488;42.616;23.350;2023-04-08T14:58:41;8.85;;;8.05;;
6898;SDS011;3488;42.616;23.350;2023-04-08T15:01:08;11.10;;;7.45;;